sensor_id;sensor_type;location;lat;lon;timestamp;P1;durP1;ratioP1;P2;durP2;ratioP2
12715;SDS011;6422;49.938;9.124;2022-07-23T00:02:10;48.20;;;13.67;;
12715;SDS011;6422;49.938;9.124;2022-07-23T00:04:35;47.20;;;12.52;;
12715;SDS011;6422;49.938;9.124;2022-07-23T00:07:00;47.67;;;12.20;;
12715;SDS011;6422;49.938;9.124;2022-07-23T00:09:25;49.90;;;14.00;;
12715;SDS011;6422;49.938;9.124;2022-07-23T00:11:51;56.23;;;13.97;;
12715;SDS011;6422;49.938;9.124;2022-07-23T00:14:16;50.33;;;15.30;;
12715;SDS011;6422;49.938;9.124;2022-07-23T00:16:41;47.60;;;14.50;;
12715;SDS011;6422;49.938;9.124;2022-07-23T00:19:06;49.17;;;13.27;;
12715;SDS011;6422;49.938;9.124;2022-07-23T00:21:32;47.07;;;13.17;;
12715;SDS011;6422;49.938;9.124;2022-07-23T00:23:57;48.73;;;13.80;;
12715;SDS011;6422;49.938;9.124;2022-07-23T00:26:22;49.67;;;13.80;;
12715;SDS011;6422;49.938;9.124;2022-07-23T00:28:47;48.25;;;13.93;;
12715;SDS011;6422;49.938;9.124;2022-07-23T00:31:12;51.72;;;12.95;;
12715;SDS011;6422;49.938;9.124;2022-07-23T00:33:37;48.65;;;14.93;;
12715;SDS011;6422;49.938;9.124;2022-07-23T00:36:02;48.90;;;14.93;;
12715;SDS011;6422;49.938;9.124;2022-07-23T00:38:28;59.33;;;12.80;;
12715;SDS011;6422;49.938;9.124;2022-07-23T00:40:53;48.07;;;16.13;;
12715;SDS011;6422;49.938;9.124;2022-07-23T00:43:20;54.85;;;16.25;;
12715;SDS011;6422;49.938;9.124;2022-07-23T00:45:45;47.10;;;14.27;;
12715;SDS011;6422;49.938;9.124;2022-07-23T00:48:10;50.83;;;14.00;;
12715;SDS011;6422;49.938;9.124;2022-07-23T00:50:35;64.03;;;14.27;;
12715;SDS011;6422;49.938;9.124;2022-07-23T00:53:00;93.97;;;13.87;;
12715;SDS011;6422;49.938;9.124;2022-07-23T00:55:26;50.17;;;11.90;;
12715;SDS011;6422;49.938;9.124;2022-07-23T00:57:51;45.90;;;13.23;;
12715;SDS011;6422;49.938;9.124;2022-07-23T01:00:17;50.60;;;13.60;;
12715;SDS011;6422;49.938;9.124;2022-07-23T01:02:42;48.83;;;14.20;;
12715;SDS011;6422;49.938;9.124;2022-07-23T01:05:08;45.10;;;11.70;;
12715;SDS011;6422;49.938;9.124;2022-07-23T01:07:33;44.27;;;11.10;;
12715;SDS011;6422;49.938;9.124;2022-07-23T01:09:59;59.80;;;12.50;;
12715;SDS011;6422;49.938;9.124;2022-07-23T01:12:25;44.50;;;10.80;;
12715;SDS011;6422;49.938;9.124;2022-07-23T01:14:56;46.93;;;12.83;;
12715;SDS011;6422;49.938;9.124;2022-07-23T01:17:22;45.40;;;11.90;;
12715;SDS011;6422;49.938;9.124;2022-07-23T01:19:47;47.27;;;11.63;;
12715;SDS011;6422;49.938;9.124;2022-07-23T01:22:12;48.80;;;12.50;;
12715;SDS011;6422;49.938;9.124;2022-07-23T01:24:38;45.17;;;11.37;;
12715;SDS011;6422;49.938;9.124;2022-07-23T01:27:03;43.95;;;8.65;;
12715;SDS011;6422;49.938;9.124;2022-07-23T01:29:30;45.70;;;9.90;;
12715;SDS011;6422;49.938;9.124;2022-07-23T01:31:55;45.50;;;9.23;;
12715;SDS011;6422;49.938;9.124;2022-07-23T01:34:20;43.00;;;9.30;;
12715;SDS011;6422;49.938;9.124;2022-07-23T01:36:45;43.17;;;10.10;;
12715;SDS011;6422;49.938;9.124;2022-07-23T01:39:11;42.47;;;8.90;;
12715;SDS011;6422;49.938;9.124;2022-07-23T01:41:37;42.67;;;8.52;;
12715;SDS011;6422;49.938;9.124;2022-07-23T01:44:02;42.10;;;9.07;;
12715;SDS011;6422;49.938;9.124;2022-07-23T01:46:27;42.40;;;10.13;;
12715;SDS011;6422;49.938;9.124;2022-07-23T01:48:52;44.77;;;10.60;;
12715;SDS011;6422;49.938;9.124;2022-07-23T01:51:17;44.20;;;10.57;;
12715;SDS011;6422;49.938;9.124;2022-07-23T01:53:42;43.80;;;9.73;;
12715;SDS011;6422;49.938;9.124;2022-07-23T01:56:08;44.25;;;9.18;;
12715;SDS011;6422;49.938;9.124;2022-07-23T01:58:33;44.67;;;9.40;;
12715;SDS011;6422;49.938;9.124;2022-07-23T02:00:58;44.03;;;11.30;;
12715;SDS011;6422;49.938;9.124;2022-07-23T02:03:23;43.87;;;10.73;;
12715;SDS011;6422;49.938;9.124;2022-07-23T02:05:49;45.57;;;11.00;;
12715;SDS011;6422;49.938;9.124;2022-07-23T02:08:14;48.00;;;12.57;;
12715;SDS011;6422;49.938;9.124;2022-07-23T02:10:39;47.23;;;12.37;;
12715;SDS011;6422;49.938;9.124;2022-07-23T02:13:04;48.97;;;12.53;;
12715;SDS011;6422;49.938;9.124;2022-07-23T02:15:30;50.30;;;13.37;;
12715;SDS011;6422;49.938;9.124;2022-07-23T02:17:55;48.00;;;12.83;;
12715;SDS011;6422;49.938;9.124;2022-07-23T02:20:20;44.07;;;13.40;;
12715;SDS011;6422;49.938;9.124;2022-07-23T02:22:46;52.47;;;13.57;;
12715;SDS011;6422;49.938;9.124;2022-07-23T02:25:11;47.17;;;12.33;;
12715;SDS011;6422;49.938;9.124;2022-07-23T02:27:36;45.83;;;13.70;;
12715;SDS011;6422;49.938;9.124;2022-07-23T02:30:02;46.77;;;14.23;;
12715;SDS011;6422;49.938;9.124;2022-07-23T02:32:27;47.20;;;14.00;;
12715;SDS011;6422;49.938;9.124;2022-07-23T02:34:52;48.25;;;14.52;;
12715;SDS011;6422;49.938;9.124;2022-07-23T02:37:17;46.13;;;12.90;;
12715;SDS011;6422;49.938;9.124;2022-07-23T02:39:43;48.07;;;14.37;;
12715;SDS011;6422;49.938;9.124;2022-07-23T02:42:08;46.53;;;14.13;;
12715;SDS011;6422;49.938;9.124;2022-07-23T02:44:33;48.03;;;13.30;;
12715;SDS011;6422;49.938;9.124;2022-07-23T02:46:59;47.97;;;12.60;;
12715;SDS011;6422;49.938;9.124;2022-07-23T02:49:24;47.58;;;14.18;;
12715;SDS011;6422;49.938;9.124;2022-07-23T02:51:49;46.77;;;13.30;;
12715;SDS011;6422;49.938;9.124;2022-07-23T02:54:14;47.10;;;14.07;;
12715;SDS011;6422;49.938;9.124;2022-07-23T02:56:39;47.63;;;14.00;;
12715;SDS011;6422;49.938;9.124;2022-07-23T02:59:05;49.20;;;14.33;;
12715;SDS011;6422;49.938;9.124;2022-07-23T03:01:30;46.30;;;14.10;;
12715;SDS011;6422;49.938;9.124;2022-07-23T03:03:55;46.30;;;12.97;;
12715;SDS011;6422;49.938;9.124;2022-07-23T03:06:20;47.47;;;14.43;;
12715;SDS011;6422;49.938;9.124;2022-07-23T03:08:45;47.70;;;12.37;;
12715;SDS011;6422;49.938;9.124;2022-07-23T03:11:10;48.20;;;16.30;;
12715;SDS011;6422;49.938;9.124;2022-07-23T03:13:39;44.57;;;12.50;;
12715;SDS011;6422;49.938;9.124;2022-07-23T03:16:04;47.10;;;13.17;;
12715;SDS011;6422;49.938;9.124;2022-07-23T03:18:30;47.63;;;13.63;;
12715;SDS011;6422;49.938;9.124;2022-07-23T03:20:55;47.43;;;13.37;;
12715;SDS011;6422;49.938;9.124;2022-07-23T03:23:20;48.10;;;12.83;;
12715;SDS011;6422;49.938;9.124;2022-07-23T03:25:45;48.10;;;12.80;;
12715;SDS011;6422;49.938;9.124;2022-07-23T03:28:13;45.80;;;12.70;;
12715;SDS011;6422;49.938;9.124;2022-07-23T03:30:38;49.70;;;13.43;;
12715;SDS011;6422;49.938;9.124;2022-07-23T03:33:03;52.23;;;14.57;;
12715;SDS011;6422;49.938;9.124;2022-07-23T03:35:28;48.47;;;14.60;;
12715;SDS011;6422;49.938;9.124;2022-07-23T03:37:54;47.80;;;13.40;;
12715;SDS011;6422;49.938;9.124;2022-07-23T03:40:19;47.67;;;13.80;;
12715;SDS011;6422;49.938;9.124;2022-07-23T03:42:44;51.30;;;14.00;;
12715;SDS011;6422;49.938;9.124;2022-07-23T03:45:11;47.53;;;14.37;;
12715;SDS011;6422;49.938;9.124;2022-07-23T03:47:37;47.33;;;13.37;;
12715;SDS011;6422;49.938;9.124;2022-07-23T03:50:03;47.67;;;13.50;;
12715;SDS011;6422;49.938;9.124;2022-07-23T03:52:29;46.93;;;13.47;;
12715;SDS011;6422;49.938;9.124;2022-07-23T03:54:54;50.07;;;13.73;;
12715;SDS011;6422;49.938;9.124;2022-07-23T03:57:19;51.63;;;13.17;;
12715;SDS011;6422;49.938;9.124;2022-07-23T03:59:44;47.87;;;15.00;;
12715;SDS011;6422;49.938;9.124;2022-07-23T04:02:09;47.38;;;12.95;;
12715;SDS011;6422;49.938;9.124;2022-07-23T04:04:34;46.28;;;12.82;;
12715;SDS011;6422;49.938;9.124;2022-07-23T04:07:00;47.00;;;14.67;;
12715;SDS011;6422;49.938;9.124;2022-07-23T04:09:26;49.77;;;15.40;;
12715;SDS011;6422;49.938;9.124;2022-07-23T04:11:51;48.30;;;13.43;;
12715;SDS011;6422;49.938;9.124;2022-07-23T04:14:16;49.50;;;12.70;;
12715;SDS011;6422;49.938;9.124;2022-07-23T04:16:42;46.10;;;11.80;;
12715;SDS011;6422;49.938;9.124;2022-07-23T04:19:08;45.80;;;14.07;;
12715;SDS011;6422;49.938;9.124;2022-07-23T04:21:33;48.87;;;12.30;;
12715;SDS011;6422;49.938;9.124;2022-07-23T04:23:58;46.08;;;12.10;;
12715;SDS011;6422;49.938;9.124;2022-07-23T04:26:23;48.00;;;14.30;;
12715;SDS011;6422;49.938;9.124;2022-07-23T04:28:49;45.30;;;11.70;;
12715;SDS011;6422;49.938;9.124;2022-07-23T04:31:14;47.78;;;13.73;;
12715;SDS011;6422;49.938;9.124;2022-07-23T04:33:39;47.00;;;13.70;;
12715;SDS011;6422;49.938;9.124;2022-07-23T04:36:04;46.93;;;10.37;;
12715;SDS011;6422;49.938;9.124;2022-07-23T04:38:29;47.37;;;12.20;;
12715;SDS011;6422;49.938;9.124;2022-07-23T04:40:54;46.50;;;12.07;;
12715;SDS011;6422;49.938;9.124;2022-07-23T04:43:20;44.80;;;11.03;;
12715;SDS011;6422;49.938;9.124;2022-07-23T04:45:45;47.43;;;13.27;;
12715;SDS011;6422;49.938;9.124;2022-07-23T04:48:10;46.50;;;12.53;;
12715;SDS011;6422;49.938;9.124;2022-07-23T04:50:35;49.40;;;13.60;;
12715;SDS011;6422;49.938;9.124;2022-07-23T04:53:01;46.97;;;13.80;;
12715;SDS011;6422;49.938;9.124;2022-07-23T04:55:26;45.87;;;12.47;;
12715;SDS011;6422;49.938;9.124;2022-07-23T04:57:51;48.92;;;13.82;;
12715;SDS011;6422;49.938;9.124;2022-07-23T05:00:16;46.00;;;12.75;;
12715;SDS011;6422;49.938;9.124;2022-07-23T05:02:42;50.03;;;15.07;;
12715;SDS011;6422;49.938;9.124;2022-07-23T05:05:07;46.17;;;11.40;;
12715;SDS011;6422;49.938;9.124;2022-07-23T05:07:32;51.60;;;15.80;;
12715;SDS011;6422;49.938;9.124;2022-07-23T05:09:57;48.57;;;15.27;;
12715;SDS011;6422;49.938;9.124;2022-07-23T05:12:22;46.92;;;13.05;;
12715;SDS011;6422;49.938;9.124;2022-07-23T05:14:48;52.10;;;15.90;;
12715;SDS011;6422;49.938;9.124;2022-07-23T05:17:13;51.80;;;20.70;;
12715;SDS011;6422;49.938;9.124;2022-07-23T05:19:38;45.60;;;13.60;;
12715;SDS011;6422;49.938;9.124;2022-07-23T05:22:03;44.47;;;12.33;;
12715;SDS011;6422;49.938;9.124;2022-07-23T05:24:28;49.17;;;10.40;;
12715;SDS011;6422;49.938;9.124;2022-07-23T05:26:53;43.70;;;7.97;;
12715;SDS011;6422;49.938;9.124;2022-07-23T05:29:19;41.93;;;7.50;;
12715;SDS011;6422;49.938;9.124;2022-07-23T05:31:44;42.00;;;6.93;;
12715;SDS011;6422;49.938;9.124;2022-07-23T05:34:09;44.57;;;9.67;;
12715;SDS011;6422;49.938;9.124;2022-07-23T05:36:34;46.30;;;11.77;;
12715;SDS011;6422;49.938;9.124;2022-07-23T05:38:59;92.17;;;14.17;;
12715;SDS011;6422;49.938;9.124;2022-07-23T05:41:25;47.70;;;16.58;;
12715;SDS011;6422;49.938;9.124;2022-07-23T05:43:50;49.15;;;17.00;;
12715;SDS011;6422;49.938;9.124;2022-07-23T05:46:15;52.27;;;17.00;;
12715;SDS011;6422;49.938;9.124;2022-07-23T05:48:40;51.83;;;16.97;;
12715;SDS011;6422;49.938;9.124;2022-07-23T05:51:07;48.53;;;14.77;;
12715;SDS011;6422;49.938;9.124;2022-07-23T05:53:32;47.63;;;14.20;;
12715;SDS011;6422;49.938;9.124;2022-07-23T05:55:57;54.63;;;14.87;;
12715;SDS011;6422;49.938;9.124;2022-07-23T05:58:23;46.30;;;12.63;;
12715;SDS011;6422;49.938;9.124;2022-07-23T06:00:48;46.90;;;15.13;;
12715;SDS011;6422;49.938;9.124;2022-07-23T06:03:14;54.53;;;12.57;;
12715;SDS011;6422;49.938;9.124;2022-07-23T06:05:39;46.07;;;12.40;;
12715;SDS011;6422;49.938;9.124;2022-07-23T06:08:04;46.43;;;13.20;;
12715;SDS011;6422;49.938;9.124;2022-07-23T06:10:29;44.58;;;10.90;;
12715;SDS011;6422;49.938;9.124;2022-07-23T06:12:54;47.50;;;12.67;;
12715;SDS011;6422;49.938;9.124;2022-07-23T06:15:20;48.60;;;14.67;;
12715;SDS011;6422;49.938;9.124;2022-07-23T06:17:45;48.53;;;15.82;;
12715;SDS011;6422;49.938;9.124;2022-07-23T06:20:11;46.03;;;13.10;;
12715;SDS011;6422;49.938;9.124;2022-07-23T06:22:37;48.77;;;13.53;;
12715;SDS011;6422;49.938;9.124;2022-07-23T06:25:02;54.13;;;12.90;;
12715;SDS011;6422;49.938;9.124;2022-07-23T06:27:27;47.43;;;13.63;;
12715;SDS011;6422;49.938;9.124;2022-07-23T06:29:52;50.03;;;16.37;;
12715;SDS011;6422;49.938;9.124;2022-07-23T06:32:18;48.80;;;16.10;;
12715;SDS011;6422;49.938;9.124;2022-07-23T06:34:43;49.07;;;16.43;;
12715;SDS011;6422;49.938;9.124;2022-07-23T06:37:08;48.88;;;17.55;;
12715;SDS011;6422;49.938;9.124;2022-07-23T06:39:33;48.30;;;16.40;;
12715;SDS011;6422;49.938;9.124;2022-07-23T06:41:58;51.30;;;18.30;;
12715;SDS011;6422;49.938;9.124;2022-07-23T06:44:24;51.57;;;18.37;;
12715;SDS011;6422;49.938;9.124;2022-07-23T06:46:49;52.07;;;19.00;;
12715;SDS011;6422;49.938;9.124;2022-07-23T06:49:14;52.63;;;18.57;;
12715;SDS011;6422;49.938;9.124;2022-07-23T06:51:39;50.20;;;18.43;;
12715;SDS011;6422;49.938;9.124;2022-07-23T06:54:05;50.00;;;18.70;;
12715;SDS011;6422;49.938;9.124;2022-07-23T06:56:30;49.70;;;18.67;;
12715;SDS011;6422;49.938;9.124;2022-07-23T06:58:55;47.50;;;16.33;;
12715;SDS011;6422;49.938;9.124;2022-07-23T07:01:20;50.47;;;17.97;;
12715;SDS011;6422;49.938;9.124;2022-07-23T07:03:46;50.60;;;18.90;;
12715;SDS011;6422;49.938;9.124;2022-07-23T07:06:11;51.27;;;19.93;;
12715;SDS011;6422;49.938;9.124;2022-07-23T07:08:36;44.23;;;9.57;;
12715;SDS011;6422;49.938;9.124;2022-07-23T07:11:02;44.47;;;11.07;;
12715;SDS011;6422;49.938;9.124;2022-07-23T07:13:27;42.87;;;7.10;;
12715;SDS011;6422;49.938;9.124;2022-07-23T07:15:53;42.47;;;8.50;;
12715;SDS011;6422;49.938;9.124;2022-07-23T07:18:18;41.50;;;7.10;;
12715;SDS011;6422;49.938;9.124;2022-07-23T07:20:43;41.73;;;6.07;;
12715;SDS011;6422;49.938;9.124;2022-07-23T07:23:08;42.10;;;6.10;;
12715;SDS011;6422;49.938;9.124;2022-07-23T07:25:33;39.30;;;5.37;;
12715;SDS011;6422;49.938;9.124;2022-07-23T07:27:58;45.27;;;5.83;;
12715;SDS011;6422;49.938;9.124;2022-07-23T07:30:24;49.20;;;6.67;;
12715;SDS011;6422;49.938;9.124;2022-07-23T07:32:49;42.80;;;6.70;;
12715;SDS011;6422;49.938;9.124;2022-07-23T07:35:14;40.37;;;5.50;;
12715;SDS011;6422;49.938;9.124;2022-07-23T07:37:39;39.77;;;5.30;;
12715;SDS011;6422;49.938;9.124;2022-07-23T07:40:04;40.50;;;6.10;;
12715;SDS011;6422;49.938;9.124;2022-07-23T07:42:30;40.83;;;5.83;;
12715;SDS011;6422;49.938;9.124;2022-07-23T07:44:57;43.30;;;6.73;;
12715;SDS011;6422;49.938;9.124;2022-07-23T07:47:22;41.43;;;6.27;;
12715;SDS011;6422;49.938;9.124;2022-07-23T07:49:47;41.60;;;5.80;;
12715;SDS011;6422;49.938;9.124;2022-07-23T07:52:12;39.40;;;6.20;;
12715;SDS011;6422;49.938;9.124;2022-07-23T07:54:37;40.60;;;5.45;;
12715;SDS011;6422;49.938;9.124;2022-07-23T07:57:02;41.80;;;6.10;;
12715;SDS011;6422;49.938;9.124;2022-07-23T07:59:28;42.20;;;6.70;;
12715;SDS011;6422;49.938;9.124;2022-07-23T08:01:53;40.20;;;5.50;;
12715;SDS011;6422;49.938;9.124;2022-07-23T08:04:18;40.57;;;5.40;;
12715;SDS011;6422;49.938;9.124;2022-07-23T08:06:43;43.80;;;7.10;;
12715;SDS011;6422;49.938;9.124;2022-07-23T08:09:09;40.90;;;5.70;;
12715;SDS011;6422;49.938;9.124;2022-07-23T08:11:34;42.90;;;6.60;;
12715;SDS011;6422;49.938;9.124;2022-07-23T08:13:59;45.20;;;7.50;;
12715;SDS011;6422;49.938;9.124;2022-07-23T08:16:24;39.93;;;5.80;;
12715;SDS011;6422;49.938;9.124;2022-07-23T08:18:49;39.87;;;6.03;;
12715;SDS011;6422;49.938;9.124;2022-07-23T08:21:14;40.60;;;5.60;;
12715;SDS011;6422;49.938;9.124;2022-07-23T08:23:40;40.17;;;5.07;;
12715;SDS011;6422;49.938;9.124;2022-07-23T08:26:05;40.40;;;6.37;;
12715;SDS011;6422;49.938;9.124;2022-07-23T08:28:30;42.40;;;6.67;;
12715;SDS011;6422;49.938;9.124;2022-07-23T08:30:58;43.57;;;5.87;;
12715;SDS011;6422;49.938;9.124;2022-07-23T08:33:23;44.00;;;5.70;;
12715;SDS011;6422;49.938;9.124;2022-07-23T08:35:49;40.53;;;6.07;;
12715;SDS011;6422;49.938;9.124;2022-07-23T08:38:16;42.47;;;5.37;;
12715;SDS011;6422;49.938;9.124;2022-07-23T08:40:43;40.67;;;6.00;;
12715;SDS011;6422;49.938;9.124;2022-07-23T08:43:10;39.97;;;5.30;;
12715;SDS011;6422;49.938;9.124;2022-07-23T08:45:37;43.17;;;6.07;;
12715;SDS011;6422;49.938;9.124;2022-07-23T08:48:03;40.77;;;6.17;;
12715;SDS011;6422;49.938;9.124;2022-07-23T08:50:28;39.03;;;4.83;;
12715;SDS011;6422;49.938;9.124;2022-07-23T08:52:53;38.83;;;4.93;;
12715;SDS011;6422;49.938;9.124;2022-07-23T08:55:20;44.07;;;6.77;;
12715;SDS011;6422;49.938;9.124;2022-07-23T08:57:49;41.73;;;5.87;;
12715;SDS011;6422;49.938;9.124;2022-07-23T09:00:15;40.53;;;5.60;;
12715;SDS011;6422;49.938;9.124;2022-07-23T09:02:41;38.63;;;5.00;;
12715;SDS011;6422;49.938;9.124;2022-07-23T09:05:07;41.70;;;6.37;;
12715;SDS011;6422;49.938;9.124;2022-07-23T09:07:32;42.83;;;6.20;;
12715;SDS011;6422;49.938;9.124;2022-07-23T09:10:04;40.33;;;5.90;;
12715;SDS011;6422;49.938;9.124;2022-07-23T09:12:29;43.03;;;5.50;;
12715;SDS011;6422;49.938;9.124;2022-07-23T09:14:55;39.65;;;5.88;;
12715;SDS011;6422;49.938;9.124;2022-07-23T09:17:20;42.60;;;5.70;;
12715;SDS011;6422;49.938;9.124;2022-07-23T09:19:46;42.53;;;6.00;;
12715;SDS011;6422;49.938;9.124;2022-07-23T09:27:26;40.30;;;5.90;;
12715;SDS011;6422;49.938;9.124;2022-07-23T09:30:09;42.97;;;6.03;;
12715;SDS011;6422;49.938;9.124;2022-07-23T09:32:34;40.53;;;6.17;;
12715;SDS011;6422;49.938;9.124;2022-07-23T09:35:00;38.07;;;4.87;;
12715;SDS011;6422;49.938;9.124;2022-07-23T09:37:25;39.23;;;4.97;;
12715;SDS011;6422;49.938;9.124;2022-07-23T09:39:50;38.27;;;4.97;;
12715;SDS011;6422;49.938;9.124;2022-07-23T09:42:22;41.20;;;4.97;;
12715;SDS011;6422;49.938;9.124;2022-07-23T09:44:49;41.07;;;5.00;;
12715;SDS011;6422;49.938;9.124;2022-07-23T09:47:15;41.83;;;5.87;;
12715;SDS011;6422;49.938;9.124;2022-07-23T09:49:41;39.00;;;4.90;;
12715;SDS011;6422;49.938;9.124;2022-07-23T09:52:25;39.83;;;5.07;;
12715;SDS011;6422;49.938;9.124;2022-07-23T09:54:51;39.57;;;5.37;;
12715;SDS011;6422;49.938;9.124;2022-07-23T09:57:21;40.90;;;5.33;;
12715;SDS011;6422;49.938;9.124;2022-07-23T09:59:47;37.37;;;4.60;;
12715;SDS011;6422;49.938;9.124;2022-07-23T10:02:12;46.43;;;4.60;;
12715;SDS011;6422;49.938;9.124;2022-07-23T10:04:38;38.57;;;5.17;;
12715;SDS011;6422;49.938;9.124;2022-07-23T10:07:04;38.47;;;5.37;;
12715;SDS011;6422;49.938;9.124;2022-07-23T10:09:31;37.97;;;4.40;;
12715;SDS011;6422;49.938;9.124;2022-07-23T10:11:57;38.33;;;4.20;;
12715;SDS011;6422;49.938;9.124;2022-07-23T10:14:27;39.83;;;4.90;;
12715;SDS011;6422;49.938;9.124;2022-07-23T10:16:55;39.63;;;4.90;;
12715;SDS011;6422;49.938;9.124;2022-07-23T10:19:21;45.23;;;5.77;;
12715;SDS011;6422;49.938;9.124;2022-07-23T10:21:47;37.53;;;4.10;;
12715;SDS011;6422;49.938;9.124;2022-07-23T10:29:36;38.80;;;5.37;;
12715;SDS011;6422;49.938;9.124;2022-07-23T10:32:14;38.07;;;4.20;;
12715;SDS011;6422;49.938;9.124;2022-07-23T10:34:44;39.10;;;4.80;;
12715;SDS011;6422;49.938;9.124;2022-07-23T10:39:41;38.90;;;4.80;;
12715;SDS011;6422;49.938;9.124;2022-07-23T10:42:07;37.33;;;3.80;;
12715;SDS011;6422;49.938;9.124;2022-07-23T10:44:37;38.07;;;4.13;;
12715;SDS011;6422;49.938;9.124;2022-07-23T10:47:03;38.30;;;4.63;;
12715;SDS011;6422;49.938;9.124;2022-07-23T10:49:30;38.47;;;4.33;;
12715;SDS011;6422;49.938;9.124;2022-07-23T10:54:38;40.00;;;4.60;;
12715;SDS011;6422;49.938;9.124;2022-07-23T10:57:05;39.00;;;4.50;;
12715;SDS011;6422;49.938;9.124;2022-07-23T11:02:20;36.47;;;3.23;;
12715;SDS011;6422;49.938;9.124;2022-07-23T11:04:50;40.30;;;3.73;;
12715;SDS011;6422;49.938;9.124;2022-07-23T11:07:15;36.77;;;3.13;;
12715;SDS011;6422;49.938;9.124;2022-07-23T11:09:41;37.67;;;3.70;;
12715;SDS011;6422;49.938;9.124;2022-07-23T11:17:23;36.60;;;3.27;;
12715;SDS011;6422;49.938;9.124;2022-07-23T11:22:40;39.00;;;3.37;;
12715;SDS011;6422;49.938;9.124;2022-07-23T11:25:11;37.43;;;3.63;;
12715;SDS011;6422;49.938;9.124;2022-07-23T11:27:37;37.03;;;3.60;;
12715;SDS011;6422;49.938;9.124;2022-07-23T11:30:02;36.77;;;3.63;;
12715;SDS011;6422;49.938;9.124;2022-07-23T11:32:29;37.60;;;4.30;;
12715;SDS011;6422;49.938;9.124;2022-07-23T11:34:54;37.53;;;3.60;;
12715;SDS011;6422;49.938;9.124;2022-07-23T11:39:55;35.63;;;3.00;;
12715;SDS011;6422;49.938;9.124;2022-07-23T11:42:20;36.40;;;3.20;;
12715;SDS011;6422;49.938;9.124;2022-07-23T11:44:46;36.50;;;3.33;;
12715;SDS011;6422;49.938;9.124;2022-07-23T11:47:11;37.70;;;3.50;;
12715;SDS011;6422;49.938;9.124;2022-07-23T11:49:37;39.70;;;3.30;;
12715;SDS011;6422;49.938;9.124;2022-07-23T11:52:12;36.83;;;3.60;;
12715;SDS011;6422;49.938;9.124;2022-07-23T11:54:51;38.50;;;3.93;;
12715;SDS011;6422;49.938;9.124;2022-07-23T11:57:16;40.00;;;3.70;;
12715;SDS011;6422;49.938;9.124;2022-07-23T11:59:42;38.90;;;4.30;;
12715;SDS011;6422;49.938;9.124;2022-07-23T12:02:08;37.13;;;3.63;;
12715;SDS011;6422;49.938;9.124;2022-07-23T12:04:39;39.93;;;3.90;;
12715;SDS011;6422;49.938;9.124;2022-07-23T12:07:22;39.07;;;3.57;;
12715;SDS011;6422;49.938;9.124;2022-07-23T12:09:47;36.27;;;2.90;;
12715;SDS011;6422;49.938;9.124;2022-07-23T12:12:12;37.57;;;3.77;;
12715;SDS011;6422;49.938;9.124;2022-07-23T12:14:46;36.10;;;3.07;;
12715;SDS011;6422;49.938;9.124;2022-07-23T12:17:11;37.63;;;3.60;;
12715;SDS011;6422;49.938;9.124;2022-07-23T12:19:37;38.60;;;3.13;;
12715;SDS011;6422;49.938;9.124;2022-07-23T12:22:02;36.10;;;2.83;;
12715;SDS011;6422;49.938;9.124;2022-07-23T12:24:27;40.60;;;3.50;;
12715;SDS011;6422;49.938;9.124;2022-07-23T12:27:26;38.07;;;3.53;;
12715;SDS011;6422;49.938;9.124;2022-07-23T12:29:44;39.00;;;4.20;;
12715;SDS011;6422;49.938;9.124;2022-07-23T12:32:16;35.77;;;2.87;;
12715;SDS011;6422;49.938;9.124;2022-07-23T12:34:42;36.10;;;2.90;;
12715;SDS011;6422;49.938;9.124;2022-07-23T12:37:07;35.50;;;2.70;;
12715;SDS011;6422;49.938;9.124;2022-07-23T12:39:32;36.38;;;3.13;;
12715;SDS011;6422;49.938;9.124;2022-07-23T12:41:57;35.97;;;3.00;;
12715;SDS011;6422;49.938;9.124;2022-07-23T12:44:22;36.37;;;3.20;;
12715;SDS011;6422;49.938;9.124;2022-07-23T12:46:56;36.50;;;3.30;;
12715;SDS011;6422;49.938;9.124;2022-07-23T12:49:28;36.23;;;2.53;;
12715;SDS011;6422;49.938;9.124;2022-07-23T12:51:53;36.00;;;2.77;;
12715;SDS011;6422;49.938;9.124;2022-07-23T12:54:19;36.60;;;2.53;;
12715;SDS011;6422;49.938;9.124;2022-07-23T12:56:51;35.60;;;2.60;;
12715;SDS011;6422;49.938;9.124;2022-07-23T12:59:16;38.73;;;2.90;;
12715;SDS011;6422;49.938;9.124;2022-07-23T13:01:42;39.70;;;3.40;;
12715;SDS011;6422;49.938;9.124;2022-07-23T13:04:09;36.87;;;2.83;;
12715;SDS011;6422;49.938;9.124;2022-07-23T13:06:35;35.20;;;2.23;;
12715;SDS011;6422;49.938;9.124;2022-07-23T13:09:01;35.43;;;2.63;;
12715;SDS011;6422;49.938;9.124;2022-07-23T13:11:27;35.50;;;2.37;;
12715;SDS011;6422;49.938;9.124;2022-07-23T13:13:52;35.40;;;2.70;;
12715;SDS011;6422;49.938;9.124;2022-07-23T13:16:17;36.23;;;2.40;;
12715;SDS011;6422;49.938;9.124;2022-07-23T13:18:43;35.47;;;2.40;;
12715;SDS011;6422;49.938;9.124;2022-07-23T13:21:08;35.60;;;2.90;;
12715;SDS011;6422;49.938;9.124;2022-07-23T13:23:33;36.40;;;2.67;;
12715;SDS011;6422;49.938;9.124;2022-07-23T13:25:58;35.80;;;2.60;;
12715;SDS011;6422;49.938;9.124;2022-07-23T13:28:23;37.63;;;2.90;;
12715;SDS011;6422;49.938;9.124;2022-07-23T13:30:49;35.93;;;2.83;;
12715;SDS011;6422;49.938;9.124;2022-07-23T13:33:15;35.27;;;2.70;;
12715;SDS011;6422;49.938;9.124;2022-07-23T13:35:41;39.80;;;3.00;;
12715;SDS011;6422;49.938;9.124;2022-07-23T13:38:06;36.30;;;2.43;;
12715;SDS011;6422;49.938;9.124;2022-07-23T13:40:35;36.90;;;3.00;;
12715;SDS011;6422;49.938;9.124;2022-07-23T13:43:00;35.93;;;2.40;;
12715;SDS011;6422;49.938;9.124;2022-07-23T13:45:26;36.10;;;2.70;;
12715;SDS011;6422;49.938;9.124;2022-07-23T13:47:51;35.40;;;2.40;;
12715;SDS011;6422;49.938;9.124;2022-07-23T13:50:17;36.30;;;2.83;;
12715;SDS011;6422;49.938;9.124;2022-07-23T13:52:42;36.10;;;2.50;;
12715;SDS011;6422;49.938;9.124;2022-07-23T13:55:08;39.47;;;3.23;;
12715;SDS011;6422;49.938;9.124;2022-07-23T13:57:33;37.63;;;3.03;;
12715;SDS011;6422;49.938;9.124;2022-07-23T13:59:58;38.00;;;3.03;;
12715;SDS011;6422;49.938;9.124;2022-07-23T14:02:24;37.53;;;3.10;;
12715;SDS011;6422;49.938;9.124;2022-07-23T14:04:49;37.27;;;2.83;;
12715;SDS011;6422;49.938;9.124;2022-07-23T14:07:14;36.20;;;2.90;;
12715;SDS011;6422;49.938;9.124;2022-07-23T14:09:40;36.07;;;2.97;;
12715;SDS011;6422;49.938;9.124;2022-07-23T14:12:05;37.07;;;3.20;;
12715;SDS011;6422;49.938;9.124;2022-07-23T14:14:31;43.00;;;2.60;;
12715;SDS011;6422;49.938;9.124;2022-07-23T14:16:56;36.50;;;2.70;;
12715;SDS011;6422;49.938;9.124;2022-07-23T14:19:21;40.30;;;3.53;;
12715;SDS011;6422;49.938;9.124;2022-07-23T14:21:46;36.70;;;3.33;;
12715;SDS011;6422;49.938;9.124;2022-07-23T14:24:13;38.50;;;3.60;;
12715;SDS011;6422;49.938;9.124;2022-07-23T14:26:38;35.93;;;2.50;;
12715;SDS011;6422;49.938;9.124;2022-07-23T14:29:03;37.60;;;2.83;;
12715;SDS011;6422;49.938;9.124;2022-07-23T14:31:28;36.47;;;2.60;;
12715;SDS011;6422;49.938;9.124;2022-07-23T14:33:54;38.70;;;3.30;;
12715;SDS011;6422;49.938;9.124;2022-07-23T14:36:19;38.57;;;3.10;;
12715;SDS011;6422;49.938;9.124;2022-07-23T14:38:44;36.07;;;2.67;;
12715;SDS011;6422;49.938;9.124;2022-07-23T14:41:09;36.43;;;2.90;;
12715;SDS011;6422;49.938;9.124;2022-07-23T14:43:36;38.20;;;3.53;;
12715;SDS011;6422;49.938;9.124;2022-07-23T14:46:01;36.70;;;2.70;;
12715;SDS011;6422;49.938;9.124;2022-07-23T14:48:26;36.00;;;2.70;;
12715;SDS011;6422;49.938;9.124;2022-07-23T14:50:52;36.57;;;2.73;;
12715;SDS011;6422;49.938;9.124;2022-07-23T14:53:17;43.00;;;2.67;;
12715;SDS011;6422;49.938;9.124;2022-07-23T14:55:42;40.00;;;3.10;;
12715;SDS011;6422;49.938;9.124;2022-07-23T14:58:07;36.93;;;3.23;;
12715;SDS011;6422;49.938;9.124;2022-07-23T15:00:33;35.50;;;2.40;;
12715;SDS011;6422;49.938;9.124;2022-07-23T15:02:58;37.37;;;2.67;;